Time;durP1;ratioP1;P1;durP2;ratioP2;P2;SDS_P1;SDS_P2;PMS_P1;PMS_P2;Temp;Humidity;BMP_temperature;BMP_pressure;BME280_temperature;BME280_humidity;BME280_pressure;Samples;Min_cycle;Max_cycle;Signal;HPM_P1;HPM_P2
2022/01/06 00:00:32;;;;;;;22.95;9.43;;;12.10;99.90;;;;;;5268909;28;20345;-75
2022/01/06 00:03:03;;;;;;;21.20;8.95;;;12.10;99.90;;;;;;5268481;28;20384;-77
2022/01/06 00:05:34;;;;;;;24.58;9.27;;;12.00;99.90;;;;;;5268585;28;20115;-74
2022/01/06 00:08:05;;;;;;;26.73;10.20;;;11.90;99.90;;;;;;5268603;28;20107;-74
2022/01/06 00:10:36;;;;;;;24.05;9.02;;;11.80;99.90;;;;;;5268694;28;20073;-74
2022/01/06 00:13:12;;;;;;;29.25;10.65;;;11.80;99.90;;;;;;5268586;28;20028;-73
2022/01/06 00:23:07;;;;;;;21.23;9.90;;;11.70;99.90;;;;;;5268429;28;20028;-74
2022/01/06 00:23:59;;;;;;;26.08;9.73;;;11.60;99.90;;;;;;5269641;28;20390;-73
2022/01/06 00:26:30;;;;;;;23.42;10.00;;;11.50;99.90;;;;;;5272453;28;20036;-74
2022/01/06 00:29:01;;;;;;;23.17;10.05;;;11.60;99.90;;;;;;5272446;28;20321;-74
2022/01/06 00:31:33;;;;;;;24.02;10.77;;;11.60;99.90;;;;;;5272342;28;20012;-75
2022/01/06 00:34:05;;;;;;;25.65;10.15;;;11.50;99.90;;;;;;5272059;28;20070;-73
2022/01/06 00:36:40;;;;;;;24.58;10.73;;;11.60;99.90;;;;;;5272257;28;20036;-73
2022/01/06 00:39:11;;;;;;;27.20;11.02;;;11.30;99.90;;;;;;5272276;28;20046;-74
2022/01/06 00:41:42;;;;;;;21.08;10.80;;;11.20;99.90;;;;;;5272135;28;20024;-74
2022/01/06 00:44:14;;;;;;;27.38;10.98;;;11.00;99.90;;;;;;5270889;28;20098;-73
2022/01/06 00:46:45;;;;;;;21.33;10.75;;;10.80;99.90;;;;;;5272115;28;20032;-77
2022/01/06 00:49:20;;;;;;;31.70;11.38;;;11.10;99.90;;;;;;5272225;28;20020;-75
2022/01/06 00:51:51;;;;;;;23.67;9.82;;;11.30;99.90;;;;;;5272021;28;20032;-76
2022/01/06 00:54:22;;;;;;;29.38;10.50;;;11.60;99.90;;;;;;5272085;28;20360;-76
2022/01/06 00:56:52;;;;;;;26.65;10.80;;;11.50;99.90;;;;;;5272094;28;20023;-76
2022/01/06 00:59:23;;;;;;;20.15;8.50;;;11.60;99.90;;;;;;5271934;28;20913;-76
2022/01/06 01:01:54;;;;;;;25.80;10.50;;;11.70;99.90;;;;;;5271742;28;20046;-76
2022/01/06 01:04:25;;;;;;;20.48;10.40;;;11.70;99.90;;;;;;5271870;28;20137;-76
2022/01/06 01:06:56;;;;;;;27.63;9.45;;;11.80;99.90;;;;;;5271618;28;20044;-76
2022/01/06 01:09:26;;;;;;;25.25;9.57;;;11.90;99.90;;;;;;5271605;28;20023;-76
2022/01/06 01:12:02;;;;;;;20.13;9.90;;;11.90;99.90;;;;;;5271495;28;20102;-76
2022/01/06 01:14:44;;;;;;;27.63;9.88;;;11.90;99.90;;;;;;5271386;28;20031;-76
2022/01/06 01:17:16;;;;;;;19.92;10.20;;;11.80;99.90;;;;;;5271633;28;20052;-76
2022/01/06 01:19:46;;;;;;;25.08;10.10;;;12.10;99.90;;;;;;5271619;28;20089;-76
2022/01/06 01:22:17;;;;;;;19.17;8.40;;;12.10;99.90;;;;;;5271590;28;20032;-76
2022/01/06 01:24:48;;;;;;;26.52;9.80;;;12.30;99.90;;;;;;5271041;28;20024;-76
2022/01/06 01:27:22;;;;;;;24.75;10.55;;;12.20;99.90;;;;;;5271151;28;20107;-77
2022/01/06 01:29:58;;;;;;;25.52;10.10;;;12.30;99.90;;;;;;5271404;28;20031;-76
2022/01/06 01:32:35;;;;;;;22.25;9.93;;;12.50;99.90;;;;;;5271124;28;20573;-76
2022/01/06 01:35:09;;;;;;;19.23;9.25;;;12.30;99.90;;;;;;5270403;28;20054;-75
2022/01/06 01:37:40;;;;;;;25.98;10.30;;;12.40;99.90;;;;;;5271074;28;20024;-76
2022/01/06 01:40:12;;;;;;;23.05;9.85;;;12.30;99.90;;;;;;5271043;28;20110;-76
2022/01/06 01:42:42;;;;;;;23.13;9.98;;;12.30;99.90;;;;;;5269719;28;20081;-76
2022/01/06 01:45:13;;;;;;;24.25;9.50;;;12.60;99.90;;;;;;5270925;28;20040;-76
2022/01/06 01:47:45;;;;;;;26.10;11.00;;;12.40;99.90;;;;;;5270423;28;20075;-74
2022/01/06 01:50:18;;;;;;;29.40;11.52;;;12.30;99.90;;;;;;5271040;28;20025;-77
2022/01/06 01:52:50;;;;;;;27.23;10.38;;;12.40;99.90;;;;;;5270812;28;20024;-76
2022/01/06 01:55:25;;;;;;;25.10;10.57;;;12.40;99.90;;;;;;5270576;28;20098;-74
2022/01/06 01:57:56;;;;;;;23.95;10.70;;;12.40;99.90;;;;;;5270706;28;20035;-77
2022/01/06 02:00:30;;;;;;;20.23;9.68;;;12.30;99.90;;;;;;5270748;28;20042;-76
2022/01/06 02:03:01;;;;;;;21.30;10.35;;;12.30;99.90;;;;;;5270670;28;20021;-77
2022/01/06 02:05:32;;;;;;;24.75;9.75;;;12.20;99.90;;;;;;5270499;28;20057;-76
2022/01/06 02:08:05;;;;;;;21.20;10.07;;;12.30;99.90;;;;;;5270390;28;20107;-76
2022/01/06 02:10:36;;;;;;;19.13;9.23;;;12.40;99.90;;;;;;5270564;28;20024;-76
2022/01/06 02:13:07;;;;;;;26.23;9.15;;;12.30;99.90;;;;;;5270286;28;20038;-76
2022/01/06 02:15:38;;;;;;;24.50;10.20;;;12.30;99.90;;;;;;5270275;28;20028;-76
2022/01/06 02:18:09;;;;;;;22.42;9.48;;;12.40;99.90;;;;;;5270392;28;20482;-77
2022/01/06 02:20:39;;;;;;;18.83;9.10;;;12.30;99.90;;;;;;5270270;28;20467;-76
2022/01/06 02:23:10;;;;;;;26.75;9.85;;;12.40;99.90;;;;;;5270156;28;20387;-77
2022/01/06 02:25:41;;;;;;;23.15;9.48;;;12.50;99.90;;;;;;5270191;28;20103;-76
2022/01/06 02:28:12;;;;;;;18.95;8.48;;;12.60;99.90;;;;;;5270296;28;20071;-76
2022/01/06 02:30:50;;;;;;;16.60;8.82;;;12.60;99.90;;;;;;5270018;28;20020;-75
2022/01/06 02:33:27;;;;;;;23.45;9.95;;;12.60;99.90;;;;;;5269717;28;20486;-73
2022/01/06 02:36:00;;;;;;;24.70;9.13;;;12.50;99.90;;;;;;5269718;28;20460;-75
2022/01/06 02:38:35;;;;;;;17.85;8.93;;;12.50;99.90;;;;;;5269888;28;20032;-75
2022/01/06 02:41:15;;;;;;;22.13;9.50;;;12.50;99.90;;;;;;5269707;28;20012;-75
2022/01/06 02:44:00;;;;;;;21.67;9.00;;;12.70;99.90;;;;;;5251586;28;20375;-75
2022/01/06 02:46:31;;;;;;;20.60;8.50;;;12.60;99.90;;;;;;5269081;28;20085;-76
2022/01/06 02:49:02;;;;;;;20.10;9.85;;;12.60;99.90;;;;;;5269780;28;20421;-77
2022/01/06 02:51:33;;;;;;;17.33;7.88;;;12.50;99.90;;;;;;5269765;28;20451;-77
2022/01/06 02:54:04;;;;;;;21.33;8.82;;;12.40;99.90;;;;;;5269462;28;20058;-77
2022/01/06 02:56:37;;;;;;;17.52;8.38;;;12.40;99.90;;;;;;5269478;28;20020;-76
2022/01/06 02:59:08;;;;;;;21.10;7.95;;;12.30;99.90;;;;;;5269765;28;20024;-77
2022/01/06 03:01:40;;;;;;;19.73;7.85;;;12.50;99.90;;;;;;5269480;28;20024;-76
2022/01/06 03:04:12;;;;;;;22.20;7.85;;;12.60;99.90;;;;;;5269325;28;20131;-75
2022/01/06 03:06:43;;;;;;;20.25;7.32;;;12.80;99.90;;;;;;5269391;28;20048;-76
2022/01/06 03:09:14;;;;;;;18.83;7.32;;;12.80;99.90;;;;;;5269569;28;20016;-75
2022/01/06 03:11:44;;;;;;;16.67;7.10;;;12.80;99.90;;;;;;5269286;28;20039;-76
2022/01/06 03:14:15;;;;;;;18.17;8.23;;;12.70;99.90;;;;;;5269218;28;20101;-76
2022/01/06 03:16:46;;;;;;;14.55;7.53;;;12.50;99.90;;;;;;5269204;28;20134;-77
2022/01/06 03:19:17;;;;;;;13.73;7.50;;;12.60;99.90;;;;;;5269225;28;20024;-77
2022/01/06 03:21:48;;;;;;;21.13;7.18;;;12.70;99.90;;;;;;5269157;28;20031;-77
2022/01/06 03:24:20;;;;;;;22.33;7.03;;;12.60;99.90;;;;;;5268706;28;20379;-77
2022/01/06 03:26:51;;;;;;;18.38;7.53;;;12.60;99.90;;;;;;5268927;28;20357;-76
2022/01/06 03:29:21;;;;;;;16.33;6.88;;;12.70;99.90;;;;;;5268825;28;20031;-77
2022/01/06 03:31:52;;;;;;;15.95;7.18;;;12.70;99.90;;;;;;5268835;28;20043;-76
2022/01/06 03:34:23;;;;;;;13.52;6.65;;;12.80;99.90;;;;;;5268661;28;20081;-76
2022/01/06 03:36:54;;;;;;;18.92;7.57;;;12.70;99.90;;;;;;5269064;28;20035;-76
2022/01/06 03:39:25;;;;;;;16.42;6.85;;;12.70;99.90;;;;;;5269083;28;20024;-76
2022/01/06 03:41:56;;;;;;;15.38;6.80;;;12.70;99.90;;;;;;5268852;28;20020;-77
2022/01/06 03:44:27;;;;;;;12.70;6.20;;;12.70;99.90;;;;;;5268905;28;20527;-77
2022/01/06 03:46:57;;;;;;;13.65;6.82;;;12.60;99.90;;;;;;5268958;28;20039;-77
2022/01/06 03:49:28;;;;;;;18.85;6.85;;;12.60;99.90;;;;;;5268826;28;20020;-75
2022/01/06 03:51:59;;;;;;;15.25;6.45;;;12.60;99.90;;;;;;5268817;28;20412;-76
2022/01/06 03:54:30;;;;;;;13.68;6.32;;;12.60;99.90;;;;;;5268880;28;20044;-76
2022/01/06 03:57:02;;;;;;;15.50;5.88;;;12.80;99.90;;;;;;5268699;28;20020;-76
2022/01/06 03:59:34;;;;;;;13.68;5.75;;;12.70;99.90;;;;;;5272621;28;20130;-76
2022/01/06 04:02:05;;;;;;;15.35;6.75;;;12.80;99.90;;;;;;5272750;28;20360;-76
2022/01/06 04:04:36;;;;;;;15.18;6.47;;;12.70;99.90;;;;;;5272818;28;20039;-76
2022/01/06 04:07:07;;;;;;;13.07;5.63;;;12.60;99.90;;;;;;5272910;28;20395;-76
2022/01/06 04:09:38;;;;;;;13.25;6.18;;;12.80;99.90;;;;;;5273076;28;20096;-76
2022/01/06 04:12:11;;;;;;;20.02;6.60;;;12.80;99.90;;;;;;5272712;28;20114;-75
2022/01/06 04:14:42;;;;;;;16.65;6.13;;;12.70;99.90;;;;;;5272861;28;20012;-76
2022/01/06 04:17:12;;;;;;;16.15;6.68;;;12.70;99.90;;;;;;5272652;28;20020;-75
2022/01/06 04:19:43;;;;;;;15.20;6.68;;;12.60;99.90;;;;;;5272732;28;20028;-75
2022/01/06 04:22:15;;;;;;;11.55;5.65;;;12.70;99.90;;;;;;5272518;28;20066;-76
2022/01/06 04:24:46;;;;;;;12.27;5.65;;;12.70;99.90;;;;;;5272388;28;20032;-74
2022/01/06 04:27:16;;;;;;;15.93;5.75;;;12.70;99.90;;;;;;5271364;28;20040;-76
2022/01/06 04:29:47;;;;;;;15.50;6.25;;;12.80;99.90;;;;;;5272415;28;20012;-75
2022/01/06 04:32:18;;;;;;;16.08;6.78;;;12.70;99.90;;;;;;5272498;28;20028;-76
2022/01/06 04:34:49;;;;;;;16.77;6.47;;;12.70;99.90;;;;;;5271879;28;20032;-75
2022/01/06 04:37:20;;;;;;;18.88;5.93;;;12.80;99.90;;;;;;5272281;28;20032;-76
2022/01/06 04:39:51;;;;;;;14.73;5.90;;;12.60;99.90;;;;;;5272195;28;20027;-75
2022/01/06 04:42:22;;;;;;;13.50;6.22;;;12.60;99.90;;;;;;5270809;28;20116;-75
2022/01/06 04:44:53;;;;;;;17.95;6.30;;;12.40;99.90;;;;;;5272001;28;20403;-75
2022/01/06 04:47:23;;;;;;;15.45;5.45;;;12.40;99.90;;;;;;5270584;28;20032;-76
2022/01/06 04:49:54;;;;;;;15.57;5.18;;;12.50;99.90;;;;;;5272040;28;20463;-75
2022/01/06 04:52:25;;;;;;;11.95;4.80;;;12.60;99.90;;;;;;5272027;28;20032;-76
2022/01/06 04:54:56;;;;;;;10.00;5.07;;;12.70;99.90;;;;;;5272090;28;20070;-76
2022/01/06 04:57:27;;;;;;;16.48;4.38;;;12.50;99.90;;;;;;5272096;28;20464;-76
2022/01/06 04:59:57;;;;;;;10.10;4.55;;;12.70;99.90;;;;;;5271999;28;20119;-75
2022/01/06 05:02:28;;;;;;;10.45;4.25;;;12.30;99.90;;;;;;5288349;27;20034;-75
2022/01/06 05:04:59;;;;;;;10.38;4.70;;;12.90;99.90;;;;;;5274939;28;20030;-76
2022/01/06 05:07:32;;;;;;;16.42;4.40;;;12.70;99.90;;;;;;5278209;28;20085;-76
2022/01/06 05:10:03;;;;;;;13.10;4.95;;;12.50;99.90;;;;;;5273656;28;20025;-75
2022/01/06 05:12:38;;;;;;;11.35;4.50;;;12.60;99.90;;;;;;5271309;28;20073;-76
2022/01/06 05:15:10;;;;;;;9.55;4.82;;;12.60;99.90;;;;;;5271414;28;20013;-76
2022/01/06 05:17:41;;;;;;;11.77;5.00;;;12.60;99.90;;;;;;5271447;28;20032;-75
2022/01/06 05:20:12;;;;;;;14.30;6.05;;;12.50;99.90;;;;;;5271078;28;20027;-74
2022/01/06 05:22:45;;;;;;;17.33;5.68;;;12.50;99.90;;;;;;5270943;28;20070;-76
2022/01/06 05:25:16;;;;;;;15.68;5.63;;;12.30;99.90;;;;;;5272483;28;20024;-76
2022/01/06 05:27:47;;;;;;;14.32;6.22;;;12.30;99.90;;;;;;5292409;28;20027;-75
2022/01/06 05:30:18;;;;;;;14.90;5.55;;;12.30;99.90;;;;;;5292722;28;20020;-75
2022/01/06 05:32:48;;;;;;;13.73;5.85;;;12.10;99.90;;;;;;5292156;28;20092;-75
2022/01/06 05:35:19;;;;;;;12.52;6.00;;;12.40;99.90;;;;;;5292767;27;20048;-75
2022/01/06 05:37:50;;;;;;;13.60;6.35;;;12.30;99.90;;;;;;5297182;27;20051;-75
2022/01/06 05:40:21;;;;;;;15.20;6.38;;;12.30;99.90;;;;;;5291598;28;20027;-75
2022/01/06 05:42:52;;;;;;;15.15;6.35;;;12.20;99.90;;;;;;5301800;27;20091;-75
2022/01/06 05:45:23;;;;;;;12.50;6.22;;;12.10;99.90;;;;;;5291392;28;20035;-74
2022/01/06 05:47:54;;;;;;;13.63;6.82;;;12.10;99.90;;;;;;5290619;27;20439;-75
2022/01/06 05:50:26;;;;;;;17.55;7.18;;;12.10;99.90;;;;;;5291153;28;20054;-74
2022/01/06 05:52:57;;;;;;;14.80;6.65;;;12.10;99.90;;;;;;5294538;27;20107;-73
2022/01/06 05:55:28;;;;;;;15.70;7.07;;;12.10;99.90;;;;;;5302563;27;20106;-74
2022/01/06 05:57:59;;;;;;;14.77;6.53;;;12.00;99.90;;;;;;5299227;27;20019;-75
2022/01/06 06:00:30;;;;;;;15.23;6.30;;;12.00;99.90;;;;;;5300512;27;20070;-74
2022/01/06 06:03:05;;;;;;;15.02;6.78;;;12.00;99.90;;;;;;5301388;27;20018;-74
2022/01/06 06:05:36;;;;;;;13.25;7.07;;;12.00;99.90;;;;;;5301548;27;20039;-74
2022/01/06 06:08:08;;;;;;;16.35;7.03;;;11.90;99.90;;;;;;5297733;27;20387;-75
2022/01/06 06:10:39;;;;;;;16.20;6.38;;;12.00;99.90;;;;;;5300714;27;20118;-74
2022/01/06 06:13:09;;;;;;;16.02;6.72;;;12.00;99.90;;;;;;5300564;27;20026;-75
2022/01/06 06:15:40;;;;;;;14.88;6.45;;;11.90;99.90;;;;;;5300102;27;20025;-75
2022/01/06 06:18:12;;;;;;;15.95;6.32;;;11.90;99.90;;;;;;5306118;27;20011;-74
2022/01/06 06:20:44;;;;;;;11.85;5.90;;;11.90;99.90;;;;;;5301874;27;20015;-74
2022/01/06 06:23:14;;;;;;;12.73;6.30;;;12.00;99.90;;;;;;5298428;27;20130;-74
2022/01/06 06:25:45;;;;;;;15.98;6.50;;;12.10;99.90;;;;;;5296732;27;20110;-74
2022/01/06 06:28:16;;;;;;;20.92;6.85;;;12.10;99.90;;;;;;5301690;27;20026;-74
2022/01/06 06:30:47;;;;;;;16.85;5.53;;;12.20;99.90;;;;;;5290523;28;20118;-75
2022/01/06 06:33:18;;;;;;;12.63;5.95;;;12.30;99.90;;;;;;5292767;27;20027;-75
2022/01/06 06:35:49;;;;;;;16.75;6.35;;;12.40;99.90;;;;;;5299226;27;20051;-73
2022/01/06 06:38:19;;;;;;;14.75;5.38;;;12.50;99.90;;;;;;5300998;27;20080;-75
2022/01/06 06:40:50;;;;;;;15.48;6.38;;;12.50;99.90;;;;;;5298044;27;20031;-75
2022/01/06 06:43:21;;;;;;;13.25;5.72;;;12.50;99.90;;;;;;5307959;27;20132;-75
2022/01/06 06:45:52;;;;;;;14.35;5.97;;;12.50;99.90;;;;;;5296934;27;20023;-75
2022/01/06 06:48:24;;;;;;;15.88;6.32;;;12.70;99.90;;;;;;5291851;27;20081;-74
2022/01/06 06:50:55;;;;;;;15.15;6.45;;;12.80;99.90;;;;;;5287601;28;20516;-74
2022/01/06 06:53:26;;;;;;;12.43;6.15;;;12.90;99.90;;;;;;5305139;27;20050;-74
2022/01/06 06:55:57;;;;;;;14.43;6.38;;;13.00;99.90;;;;;;5285531;27;20019;-74
2022/01/06 06:58:28;;;;;;;16.92;5.82;;;13.00;99.90;;;;;;5294396;27;20107;-74
2022/01/06 07:00:59;;;;;;;17.17;5.78;;;13.00;99.90;;;;;;5290157;28;20023;-75
2022/01/06 07:03:30;;;;;;;13.98;6.82;;;12.90;99.90;;;;;;5289756;28;20024;-74
2022/01/06 07:06:01;;;;;;;14.00;5.63;;;13.10;99.90;;;;;;5289586;28;20054;-74
2022/01/06 07:08:31;;;;;;;15.55;5.30;;;13.10;99.90;;;;;;5294924;27;20035;-75
2022/01/06 07:11:02;;;;;;;15.18;6.78;;;13.20;99.90;;;;;;5289939;28;20016;-75
2022/01/06 07:13:33;;;;;;;14.68;6.03;;;13.20;99.90;;;;;;5306923;27;20076;-74
2022/01/06 07:16:04;;;;;;;15.45;6.45;;;13.30;99.90;;;;;;5289873;28;20023;-75
2022/01/06 07:18:35;;;;;;;12.65;5.82;;;13.30;99.90;;;;;;5302886;27;20019;-74
2022/01/06 07:21:06;;;;;;;36.38;6.65;;;13.50;99.90;;;;;;5293820;27;20490;-75
2022/01/06 07:23:37;;;;;;;11.23;5.63;;;13.60;99.90;;;;;;5307335;27;20065;-73
2022/01/06 07:26:07;;;;;;;13.75;5.90;;;13.70;99.90;;;;;;5301667;27;20042;-75
2022/01/06 07:28:38;;;;;;;12.00;5.07;;;13.90;99.90;;;;;;5302023;27;20015;-74
2022/01/06 07:31:09;;;;;;;12.77;5.57;;;14.10;99.90;;;;;;5290886;27;20039;-74
2022/01/06 07:33:40;;;;;;;13.75;5.43;;;14.30;99.90;;;;;;5291752;27;20023;-75
2022/01/06 07:36:11;;;;;;;13.20;4.90;;;14.50;99.90;;;;;;5289213;28;20048;-73
2022/01/06 07:38:42;;;;;;;10.68;4.80;;;14.70;99.90;;;;;;5288272;28;20061;-74
2022/01/06 07:41:12;;;;;;;11.65;4.07;;;14.80;99.90;;;;;;5290372;28;20035;-75
2022/01/06 07:43:43;;;;;;;12.25;4.00;;;15.00;99.90;;;;;;5289518;28;20023;-75
2022/01/06 07:46:14;;;;;;;14.25;4.95;;;14.90;99.90;;;;;;5299601;28;20436;-74
2022/01/06 07:48:57;;;;;;;12.25;4.30;;;15.20;99.90;;;;;;5308230;27;20148;-74
2022/01/06 07:51:30;;;;;;;12.48;4.38;;;15.10;99.90;;;;;;5289791;27;20122;-73
2022/01/06 07:54:01;;;;;;;10.20;4.07;;;15.00;99.90;;;;;;5297663;28;20451;-76
2022/01/06 07:56:33;;;;;;;10.80;3.80;;;15.10;99.90;;;;;;5297866;27;20045;-76
2022/01/06 07:59:04;;;;;;;12.88;5.00;;;15.10;99.90;;;;;;5289851;28;20024;-75
2022/01/06 08:01:35;;;;;;;12.52;4.20;;;15.20;99.90;;;;;;5297113;27;20092;-73
2022/01/06 08:04:06;;;;;;;11.30;3.78;;;15.20;99.90;;;;;;5294512;27;20024;-72
2022/01/06 08:06:37;;;;;;;7.13;3.60;;;15.10;99.90;;;;;;5291299;28;20044;-74
2022/01/06 08:09:08;;;;;;;11.10;4.35;;;14.90;99.90;;;;;;5290003;28;20074;-74
2022/01/06 08:11:38;;;;;;;10.23;3.70;;;15.00;99.90;;;;;;5305460;27;20084;-75
2022/01/06 08:14:09;;;;;;;9.23;4.10;;;15.00;99.90;;;;;;5287088;28;20024;-74
2022/01/06 08:16:40;;;;;;;13.35;4.20;;;15.10;99.90;;;;;;5289223;27;20478;-73
2022/01/06 08:19:11;;;;;;;10.38;3.78;;;15.00;99.90;;;;;;5290671;28;20053;-75
2022/01/06 08:21:42;;;;;;;12.10;3.83;;;15.10;99.90;;;;;;5294692;28;20019;-73
2022/01/06 08:24:13;;;;;;;7.13;4.00;;;15.30;99.90;;;;;;5300401;27;20043;-73
2022/01/06 08:26:44;;;;;;;11.00;3.90;;;15.30;99.90;;;;;;5300218;28;20401;-73
2022/01/06 08:29:15;;;;;;;9.23;4.47;;;15.50;99.90;;;;;;5288824;28;20058;-75
2022/01/06 08:31:45;;;;;;;11.20;3.45;;;15.70;99.90;;;;;;5294800;28;20019;-74
2022/01/06 08:34:17;;;;;;;7.68;3.05;;;16.10;99.90;;;;;;5300643;27;20042;-74
2022/01/06 08:36:52;;;;;;;7.97;3.08;;;16.30;99.90;;;;;;5295522;27;20389;-73
2022/01/06 08:39:23;;;;;;;10.38;3.10;;;16.50;99.90;;;;;;5306945;28;20157;-74
2022/01/06 08:41:54;;;;;;;11.57;3.10;;;16.90;99.90;;;;;;5302686;27;20030;-74
2022/01/06 08:44:27;;;;;;;5.32;3.08;;;17.20;99.90;;;;;;5301106;27;20523;-74
2022/01/06 08:47:00;;;;;;;10.60;3.08;;;17.20;99.90;;;;;;5296213;27;20115;-74
2022/01/06 08:49:31;;;;;;;8.25;2.90;;;17.70;99.90;;;;;;5290688;27;20359;-74
2022/01/06 08:52:03;;;;;;;6.53;2.60;;;17.60;99.90;;;;;;5291742;28;20022;-73
2022/01/06 08:54:34;;;;;;;7.90;2.63;;;17.70;99.90;;;;;;5301429;27;20077;-73
2022/01/06 08:57:05;;;;;;;11.05;2.85;;;18.10;99.90;;;;;;5309821;27;20019;-74
2022/01/06 08:59:36;;;;;;;9.75;2.65;;;18.00;99.90;;;;;;5292721;28;20367;-74
2022/01/06 09:02:08;;;;;;;8.27;2.53;;;18.00;99.90;;;;;;5301507;27;20015;-74
2022/01/06 09:04:38;;;;;;;7.82;2.75;;;18.30;99.90;;;;;;5296435;27;20028;-73
2022/01/06 09:07:09;;;;;;;12.32;3.30;;;18.70;99.90;;;;;;5302586;27;20043;-73
2022/01/06 09:09:40;;;;;;;5.30;2.65;;;18.40;99.90;;;;;;5294474;27;20020;-73
2022/01/06 09:12:18;;;;;;;7.63;2.80;;;18.10;99.90;;;;;;5292472;28;20042;-73
2022/01/06 09:14:48;;;;;;;8.13;2.90;;;18.30;99.90;;;;;;5307472;27;20118;-73
2022/01/06 09:17:19;;;;;;;7.93;2.65;;;18.40;99.90;;;;;;5296403;27;20416;-72
2022/01/06 09:19:50;;;;;;;9.52;2.70;;;18.50;99.90;;;;;;5303724;27;20375;-73
2022/01/06 09:22:21;;;;;;;11.07;3.38;;;18.40;99.90;;;;;;5293735;27;20043;-74
2022/01/06 09:24:52;;;;;;;9.07;3.08;;;18.60;99.90;;;;;;5302461;27;20384;-73
2022/01/06 09:27:23;;;;;;;9.23;2.83;;;19.00;99.90;;;;;;5294749;27;20130;-75
2022/01/06 09:29:54;;;;;;;9.00;2.65;;;19.10;99.90;;;;;;5300756;27;20110;-74
2022/01/06 09:32:25;;;;;;;8.18;2.80;;;19.10;99.90;;;;;;5295698;27;20035;-74
2022/01/06 09:34:56;;;;;;;7.50;2.90;;;19.00;99.90;;;;;;5298820;27;20055;-72
2022/01/06 09:37:27;;;;;;;6.05;2.53;;;19.10;99.90;;;;;;5295535;27;20036;-74
2022/01/06 09:39:58;;;;;;;9.40;2.88;;;19.20;99.90;;;;;;5297624;27;20084;-74
2022/01/06 09:42:29;;;;;;;8.20;2.78;;;18.80;99.90;;;;;;5290618;28;20467;-72
2022/01/06 09:45:00;;;;;;;10.07;2.65;;;18.60;99.90;;;;;;5291731;27;20027;-72
2022/01/06 09:47:32;;;;;;;9.38;2.72;;;19.10;99.90;;;;;;5295722;27;20113;-72
2022/01/06 09:50:04;;;;;;;9.70;3.05;;;18.80;99.90;;;;;;5299779;27;20028;-72
2022/01/06 09:52:36;;;;;;;6.45;2.88;;;19.10;99.90;;;;;;5301291;27;20047;-72
2022/01/06 09:55:08;;;;;;;4.80;2.47;;;19.30;99.90;;;;;;5291944;28;20032;-74
2022/01/06 09:57:39;;;;;;;5.93;2.40;;;19.20;99.90;;;;;;5307731;27;20059;-72
2022/01/06 10:00:11;;;;;;;6.50;2.15;;;19.40;99.90;;;;;;5284192;28;20491;-74
2022/01/06 10:02:52;;;;;;;5.93;2.80;;;19.70;99.90;;;;;;5281693;28;20103;-75
2022/01/06 10:05:25;;;;;;;7.75;2.92;;;19.40;99.90;;;;;;5288134;27;20047;-72
2022/01/06 10:07:55;;;;;;;8.55;3.00;;;19.20;99.90;;;;;;5298616;27;20084;-73
2022/01/06 10:10:26;;;;;;;10.57;2.97;;;19.70;99.90;;;;;;5300764;27;20027;-72
2022/01/06 10:12:58;;;;;;;7.50;2.83;;;19.50;99.90;;;;;;5307427;27;20054;-72
2022/01/06 10:15:29;;;;;;;8.07;3.10;;;19.90;99.90;;;;;;5291503;27;20019;-72
2022/01/06 10:18:13;;;;;;;7.95;3.20;;;19.00;99.90;;;;;;5290852;27;20077;-73
2022/01/06 10:20:48;;;;;;;8.68;3.35;;;19.40;99.90;;;;;;5296218;27;20027;-73
2022/01/06 10:23:19;;;;;;;6.18;3.10;;;19.40;99.90;;;;;;5305858;27;20031;-74
2022/01/06 10:25:50;;;;;;;7.80;3.50;;;19.10;99.90;;;;;;5305362;27;20057;-72
2022/01/06 10:28:23;;;;;;;6.13;2.67;;;19.40;99.90;;;;;;5301478;27;20102;-73
2022/01/06 10:30:53;;;;;;;12.10;3.55;;;19.00;99.90;;;;;;5294128;27;20024;-72
2022/01/06 10:33:36;;;;;;;9.45;3.20;;;19.20;99.90;;;;;;5296114;27;20019;-72
2022/01/06 10:36:08;;;;;;;9.98;3.20;;;19.50;99.90;;;;;;5301106;27;20066;-73
2022/01/06 10:38:39;;;;;;;10.52;3.22;;;19.70;99.90;;;;;;5290553;28;20459;-75
2022/01/06 10:41:12;;;;;;;9.35;3.50;;;19.50;99.90;;;;;;5291573;27;20057;-75
2022/01/06 10:43:52;;;;;;;9.35;3.30;;;20.30;99.90;;;;;;5305969;27;20016;-75
2022/01/06 10:46:42;;;;;;;8.33;3.33;;;20.00;99.90;;;;;;5290036;28;20040;-73
2022/01/06 10:49:17;;;;;;;10.82;3.72;;;19.80;99.90;;;;;;5305215;27;20499;-74
2022/01/06 10:51:49;;;;;;;10.35;3.35;;;20.00;99.90;;;;;;5291988;27;20533;-74
2022/01/06 10:54:24;;;;;;;8.50;3.10;;;20.10;99.90;;;;;;5300960;27;20027;-75
2022/01/06 10:56:57;;;;;;;9.85;3.38;;;20.20;99.90;;;;;;5300113;27;20016;-72
2022/01/06 10:59:32;;;;;;;11.68;3.20;;;20.00;99.90;;;;;;5291865;27;20019;-72
2022/01/06 11:02:05;;;;;;;8.02;3.00;;;20.00;99.90;;;;;;5290283;28;20023;-72
2022/01/06 11:04:36;;;;;;;8.55;3.03;;;19.80;99.90;;;;;;5298149;27;20035;-73
2022/01/06 11:07:07;;;;;;;8.00;2.80;;;20.50;99.90;;;;;;5291999;27;20039;-73
2022/01/06 11:09:40;;;;;;;8.73;3.08;;;20.00;99.90;;;;;;5290033;28;20091;-74
2022/01/06 11:12:26;;;;;;;10.73;3.15;;;20.40;99.90;;;;;;5293241;27;20459;-73
2022/01/06 11:14:57;;;;;;;6.68;2.50;;;20.20;99.90;;;;;;5300023;27;20030;-73
2022/01/06 11:17:29;;;;;;;10.63;3.65;;;19.90;99.90;;;;;;5289992;28;20471;-74
2022/01/06 11:20:00;;;;;;;11.45;2.88;;;19.70;99.90;;;;;;5289940;28;20020;-74
2022/01/06 11:22:31;;;;;;;10.30;3.70;;;20.20;99.90;;;;;;5302488;27;20035;-73
2022/01/06 11:25:03;;;;;;;7.55;3.10;;;19.90;99.90;;;;;;5294107;27;20028;-74
2022/01/06 11:27:36;;;;;;;7.35;2.70;;;20.70;99.90;;;;;;5295964;27;20130;-74
2022/01/06 11:30:16;;;;;;;7.97;2.80;;;20.00;99.90;;;;;;5293610;27;20027;-72
2022/01/06 11:32:57;;;;;;;;;;;19.50;99.90;;;;;;5303240;27;20110;-73
2022/01/06 11:35:27;;;;;;;8.75;2.60;;;19.90;99.90;;;;;;5289154;28;19920;-74
2022/01/06 11:38:02;;;;;;;8.32;2.67;;;20.00;99.90;;;;;;5297912;27;20103;-75
2022/01/06 11:40:35;;;;;;;6.88;2.50;;;19.90;99.90;;;;;;5297038;27;20467;-74
2022/01/06 11:43:06;;;;;;;7.22;2.60;;;20.40;99.90;;;;;;5297604;28;20119;-73
2022/01/06 11:45:37;;;;;;;6.53;2.33;;;19.70;99.90;;;;;;5295504;27;20027;-73
2022/01/06 11:48:13;;;;;;;6.43;2.33;;;20.00;99.90;;;;;;5294120;28;20024;-75
2022/01/06 11:50:46;;;;;;;10.30;2.30;;;19.80;99.90;;;;;;5288897;28;20037;-74
2022/01/06 11:53:18;;;;;;;6.85;2.55;;;20.30;99.90;;;;;;5302939;28;20066;-73
2022/01/06 11:55:49;;;;;;;12.32;3.20;;;20.00;99.90;;;;;;5296133;28;20474;-74
2022/01/06 11:58:22;;;;;;;7.22;2.50;;;19.90;99.90;;;;;;5293435;27;20020;-73
2022/01/06 12:00:58;;;;;;;6.60;2.53;;;20.50;99.90;;;;;;5304600;28;20366;-74
2022/01/06 12:03:42;;;;;;;6.97;2.72;;;20.40;99.90;;;;;;5293438;27;20016;-72
2022/01/06 12:06:24;;;;;;;4.78;2.35;;;20.60;99.90;;;;;;5300574;27;20521;-72
2022/01/06 12:08:55;;;;;;;6.80;2.70;;;20.10;99.90;;;;;;5305381;28;20437;-72
2022/01/06 12:11:33;;;;;;;6.00;2.88;;;19.80;99.90;;;;;;5290177;27;20107;-73
2022/01/06 12:14:04;;;;;;;6.45;2.67;;;20.00;99.90;;;;;;5298008;28;20095;-74
2022/01/06 12:16:37;;;;;;;7.10;2.50;;;20.00;99.90;;;;;;5304258;27;20481;-73
2022/01/06 12:19:20;;;;;;;6.82;3.00;;;20.10;99.90;;;;;;5304095;27;20024;-72
2022/01/06 12:21:51;;;;;;;6.93;3.33;;;19.80;99.90;;;;;;5301826;27;20420;-72
2022/01/06 12:24:22;;;;;;;9.75;3.67;;;19.80;99.90;;;;;;5302636;27;20091;-73
2022/01/06 12:26:54;;;;;;;6.05;2.90;;;19.90;99.90;;;;;;5293351;28;20481;-73
2022/01/06 12:29:27;;;;;;;7.57;2.95;;;20.10;99.90;;;;;;5301912;27;20020;-73
2022/01/06 12:32:10;;;;;;;7.78;2.78;;;20.20;99.90;;;;;;5307703;27;20027;-73
2022/01/06 12:34:43;;;;;;;10.00;2.78;;;20.10;99.90;;;;;;5299935;27;20047;-74
2022/01/06 12:37:14;;;;;;;7.13;2.80;;;20.00;99.90;;;;;;5306134;27;20495;-74
2022/01/06 12:39:48;;;;;;;8.82;2.80;;;20.10;99.90;;;;;;5293318;28;20059;-73
2022/01/06 12:42:18;;;;;;;9.85;2.83;;;20.20;99.90;;;;;;5303752;27;20043;-73
2022/01/06 12:44:50;;;;;;;4.95;2.03;;;20.00;99.90;;;;;;5308793;27;20083;-73
2022/01/06 12:47:21;;;;;;;10.50;3.15;;;19.80;99.90;;;;;;5297049;27;20071;-73
2022/01/06 12:49:59;;;;;;;7.20;3.08;;;19.90;99.90;;;;;;5309630;27;20050;-74
2022/01/06 12:52:30;;;;;;;11.85;3.20;;;20.10;99.90;;;;;;5292703;27;20463;-73
2022/01/06 12:55:01;;;;;;;11.05;3.40;;;19.90;99.90;;;;;;5292340;28;20085;-73
2022/01/06 12:57:32;;;;;;;6.80;2.60;;;19.90;99.90;;;;;;5299497;27;20810;-73
2022/01/06 13:00:11;;;;;;;10.40;3.25;;;20.00;99.90;;;;;;5300785;27;20411;-73
2022/01/06 13:02:56;;;;;;;9.68;3.03;;;19.60;99.90;;;;;;5298514;27;20609;-72
2022/01/06 13:05:27;;;;;;;9.65;3.15;;;20.10;99.90;;;;;;5302035;27;20019;-73
2022/01/06 13:08:05;;;;;;;11.05;3.10;;;20.10;99.90;;;;;;5311996;27;20045;-73